createdAt,value
2023-03-29T00:00:14.416Z,12.05
2023-03-29T00:02:48.603Z,20.52
2023-03-29T00:05:18.391Z,14.77
2023-03-29T00:07:46.106Z,21.08
2023-03-29T00:10:13.748Z,22.48
2023-03-29T00:12:42.007Z,24.55
2023-03-29T00:15:09.779Z,20.98
2023-03-29T00:17:37.418Z,25.60
2023-03-29T00:20:12.556Z,27.38
2023-03-29T00:22:42.301Z,32.10
2023-03-29T00:25:11.106Z,27.83
2023-03-29T00:27:38.794Z,29.00
2023-03-29T00:30:09.038Z,27.50
2023-03-29T00:32:37.575Z,25.38
2023-03-29T00:35:06.353Z,24.65
2023-03-29T00:37:34.030Z,23.15
2023-03-29T00:40:01.517Z,24.23
2023-03-29T00:42:29.274Z,22.85
2023-03-29T00:45:01.455Z,25.10
2023-03-29T00:47:34.405Z,21.42
2023-03-29T00:50:15.914Z,19.80
2023-03-29T00:52:48.750Z,20.50
2023-03-29T00:55:21.801Z,21.05
2023-03-29T00:57:52.316Z,16.80
2023-03-29T01:00:24.646Z,24.27
2023-03-29T01:02:55.237Z,25.50
2023-03-29T01:05:40.563Z,30.65
2023-03-29T01:08:25.778Z,23.35
2023-03-29T01:10:59.707Z,19.52
2023-03-29T01:13:51.607Z,23.45
2023-03-29T01:16:22.170Z,22.42
2023-03-29T01:18:50.303Z,18.88
2023-03-29T01:21:29.403Z,31.00
2023-03-29T01:24:06.979Z,28.90
2023-03-29T01:27:06.644Z,26.55
2023-03-29T01:29:48.748Z,23.55
2023-03-29T01:32:31.108Z,27.30
2023-03-29T01:35:01.870Z,23.50
2023-03-29T01:37:41.438Z,36.45
2023-03-29T01:40:09.572Z,26.45
2023-03-29T01:43:07.370Z,22.17
2023-03-29T01:45:38.691Z,17.15
2023-03-29T01:48:25.213Z,22.20
2023-03-29T01:50:56.206Z,24.08
2023-03-29T01:53:42.967Z,24.80
2023-03-29T01:56:14.185Z,13.45
2023-03-29T01:58:49.145Z,20.77
2023-03-29T02:01:26.138Z,21.55
2023-03-29T02:06:28.220Z,24.65
2023-03-29T02:08:56.473Z,24.42
2023-03-29T02:11:27.416Z,16.73
2023-03-29T02:13:58.584Z,18.23
2023-03-29T02:16:25.963Z,22.98
2023-03-29T02:21:29.706Z,20.20
2023-03-29T02:24:02.243Z,17.17
2023-03-29T02:26:29.772Z,18.80
2023-03-29T02:28:57.338Z,20.40
2023-03-29T02:31:30.406Z,18.77
2023-03-29T02:34:04.125Z,19.25
2023-03-29T02:36:42.237Z,23.00
2023-03-29T02:39:15.707Z,20.20
2023-03-29T02:41:47.202Z,20.77
2023-03-29T02:44:18.781Z,24.15
2023-03-29T02:46:55.918Z,20.50
2023-03-29T02:51:57.541Z,12.90
2023-03-29T02:54:29.977Z,22.85
2023-03-29T02:57:06.538Z,18.17
2023-03-29T02:59:34.730Z,17.45
2023-03-29T03:02:03.295Z,12.55
2023-03-29T03:04:31.927Z,15.07
2023-03-29T03:06:59.360Z,21.42
2023-03-29T03:09:27.533Z,15.07
2023-03-29T03:11:55.521Z,22.38
2023-03-29T03:14:25.621Z,19.80
2023-03-29T03:16:53.095Z,20.23
2023-03-29T03:19:21.464Z,20.38
2023-03-29T03:21:51.097Z,14.15
2023-03-29T03:24:19.185Z,16.80
2023-03-29T03:26:47.036Z,23.27
2023-03-29T03:29:15.849Z,18.90
2023-03-29T03:34:48.156Z,17.40
2023-03-29T03:37:16.171Z,20.55
2023-03-29T03:39:43.883Z,18.55
2023-03-29T03:42:12.211Z,19.48
2023-03-29T03:44:43.272Z,14.73
2023-03-29T03:47:31.314Z,22.67
2023-03-29T03:50:11.678Z,18.52
2023-03-29T03:52:39.294Z,23.60
2023-03-29T03:55:08.315Z,24.38
2023-03-29T03:57:48.037Z,20.75
2023-03-29T04:00:21.341Z,20.70
2023-03-29T04:03:11.586Z,24.60
2023-03-29T04:05:42.839Z,18.25
2023-03-29T04:08:12.738Z,21.48
2023-03-29T04:11:00.099Z,21.98
2023-03-29T04:13:35.282Z,20.30
2023-03-29T04:16:21.947Z,24.35
2023-03-29T04:18:50.093Z,17.63
2023-03-29T04:21:19.978Z,24.17
2023-03-29T04:23:49.049Z,21.95
2023-03-29T04:26:17.898Z,19.63
2023-03-29T04:28:51.381Z,20.73
2023-03-29T04:31:31.152Z,26.05
2023-03-29T04:34:20.738Z,18.65
2023-03-29T04:36:52.180Z,18.90
2023-03-29T04:39:23.346Z,20.15
2023-03-29T04:41:55.716Z,22.98
2023-03-29T04:44:27.007Z,21.58
2023-03-29T04:46:57.123Z,21.33
2023-03-29T04:49:33.296Z,18.33
2023-03-29T04:52:01.072Z,23.35
2023-03-29T04:54:31.192Z,19.05
2023-03-29T04:57:13.267Z,20.15
2023-03-29T04:59:45.507Z,27.05
2023-03-29T05:02:26.395Z,19.77
2023-03-29T05:04:54.060Z,18.33
2023-03-29T05:07:21.965Z,20.38
2023-03-29T05:09:50.501Z,18.80
2023-03-29T05:12:17.899Z,15.75
2023-03-29T05:14:53.171Z,16.17
2023-03-29T05:17:24.085Z,13.13
2023-03-29T05:19:51.726Z,14.80
2023-03-29T05:22:20.282Z,17.25
2023-03-29T05:24:47.956Z,19.80
2023-03-29T05:27:23.060Z,17.08
2023-03-29T05:30:03.900Z,16.70
2023-03-29T05:32:43.490Z,25.38
2023-03-29T05:35:14.133Z,23.95
2023-03-29T05:37:42.005Z,21.30
2023-03-29T05:40:10.191Z,19.55
2023-03-29T05:42:59.756Z,18.27
2023-03-29T05:45:29.751Z,19.55
2023-03-29T05:47:58.335Z,14.05
2023-03-29T05:50:26.153Z,13.75
2023-03-29T05:52:56.055Z,22.35
2023-03-29T05:55:24.222Z,21.10
2023-03-29T05:57:52.559Z,22.10
2023-03-29T06:00:24.409Z,13.80
2023-03-29T06:03:13.297Z,17.25
2023-03-29T06:05:49.638Z,17.30
2023-03-29T06:08:18.024Z,14.90
2023-03-29T06:11:06.127Z,16.27
2023-03-29T06:14:06.669Z,17.70
2023-03-29T06:16:39.100Z,15.32
2023-03-29T06:19:07.716Z,16.48
2023-03-29T06:21:36.630Z,19.30
2023-03-29T06:24:08.760Z,14.10
2023-03-29T06:26:43.987Z,11.55
2023-03-29T06:29:13.675Z,15.32
2023-03-29T06:31:44.398Z,12.90
2023-03-29T06:34:27.915Z,14.80
2023-03-29T06:37:19.160Z,13.80
2023-03-29T06:39:53.877Z,16.38
2023-03-29T06:42:35.789Z,11.80
2023-03-29T06:45:29.421Z,18.55
2023-03-29T06:47:59.792Z,14.27
2023-03-29T06:50:27.633Z,14.27
2023-03-29T06:53:10.410Z,13.32
2023-03-29T06:55:39.862Z,15.52
2023-03-29T06:58:26.158Z,11.97
2023-03-29T07:01:02.089Z,16.70
2023-03-29T07:03:53.110Z,13.38
2023-03-29T07:06:26.440Z,16.27
2023-03-29T07:08:59.612Z,11.68
2023-03-29T07:11:50.507Z,17.80
2023-03-29T07:14:28.714Z,12.30
2023-03-29T07:16:58.504Z,9.80
2023-03-29T07:19:34.478Z,9.68
2023-03-29T07:22:12.313Z,23.00
2023-03-29T07:24:51.030Z,6.43
2023-03-29T07:27:18.806Z,15.90
2023-03-29T07:29:50.092Z,15.88
2023-03-29T07:32:18.977Z,9.02
2023-03-29T07:34:48.395Z,11.88
2023-03-29T07:37:27.314Z,12.32
2023-03-29T07:39:56.818Z,12.20
2023-03-29T07:42:49.351Z,10.10
2023-03-29T07:45:26.900Z,15.23
2023-03-29T07:48:07.150Z,13.30
2023-03-29T07:50:51.368Z,8.50
2023-03-29T07:53:23.559Z,13.18
2023-03-29T07:55:54.909Z,11.65
2023-03-29T07:58:41.672Z,12.75
2023-03-29T08:01:11.046Z,10.68
2023-03-29T08:04:10.232Z,10.07
2023-03-29T08:09:32.704Z,8.13
2023-03-29T08:12:00.342Z,14.77
2023-03-29T08:14:34.233Z,11.45
2023-03-29T08:17:11.489Z,12.68
2023-03-29T08:19:51.420Z,11.23
2023-03-29T08:22:23.165Z,15.75
2023-03-29T08:25:19.732Z,12.85
2023-03-29T08:27:51.363Z,12.02
2023-03-29T08:30:29.648Z,10.35
2023-03-29T08:32:58.279Z,11.60
2023-03-29T08:35:26.634Z,12.88
2023-03-29T08:38:11.319Z,12.57
2023-03-29T08:40:39.704Z,8.15
2023-03-29T08:43:31.475Z,10.52
2023-03-29T08:46:23.557Z,13.43
2023-03-29T08:48:59.590Z,5.70
2023-03-29T08:51:33.113Z,14.37
2023-03-29T08:54:06.600Z,8.60
2023-03-29T08:57:03.195Z,11.00
2023-03-29T08:59:37.686Z,7.22
2023-03-29T09:02:17.967Z,7.13
2023-03-29T09:04:50.487Z,7.00
2023-03-29T09:07:31.456Z,11.07
2023-03-29T09:09:59.764Z,8.32
2023-03-29T09:12:47.785Z,7.25
2023-03-29T09:15:42.041Z,9.43
2023-03-29T09:18:41.446Z,10.73
2023-03-29T09:21:29.414Z,6.85
2023-03-29T09:24:17.324Z,10.35
2023-03-29T09:26:54.805Z,8.05
2023-03-29T09:30:04.765Z,8.23
2023-03-29T09:32:53.280Z,10.40
2023-03-29T09:35:44.340Z,7.53
2023-03-29T09:38:15.149Z,6.18
2023-03-29T09:40:57.367Z,8.10
2023-03-29T09:43:36.269Z,10.43
2023-03-29T09:46:30.401Z,9.98
2023-03-29T09:48:58.409Z,7.22
2023-03-29T09:51:30.043Z,10.13
2023-03-29T09:54:00.345Z,9.07
2023-03-29T09:56:53.521Z,8.70
2023-03-29T09:59:22.546Z,7.00
2023-03-29T10:01:50.352Z,3.50
2023-03-29T10:04:18.081Z,7.55
2023-03-29T10:06:52.848Z,5.45
2023-03-29T10:09:23.408Z,7.72
2023-03-29T10:12:06.170Z,4.45
2023-03-29T10:14:46.540Z,5.93
2023-03-29T10:17:21.972Z,7.30
2023-03-29T10:20:04.036Z,6.32
2023-03-29T10:22:36.507Z,5.93
2023-03-29T10:25:09.746Z,5.35
2023-03-29T10:27:41.062Z,7.13
2023-03-29T10:30:18.825Z,6.38
2023-03-29T10:32:47.309Z,6.72
2023-03-29T10:35:24.054Z,5.00
2023-03-29T10:40:33.916Z,9.48
2023-03-29T10:43:34.360Z,5.35
2023-03-29T10:46:13.426Z,6.65
2023-03-29T10:48:47.894Z,7.68
2023-03-29T10:51:18.758Z,8.05
2023-03-29T10:53:47.301Z,9.45
2023-03-29T10:56:40.404Z,6.43
2023-03-29T10:59:09.225Z,7.22
2023-03-29T11:02:10.437Z,7.57
2023-03-29T11:04:59.240Z,6.47
2023-03-29T11:08:04.503Z,8.90
2023-03-29T11:11:09.496Z,6.10
2023-03-29T11:13:58.065Z,5.22
2023-03-29T11:16:33.128Z,4.97
2023-03-29T11:19:17.814Z,6.72
2023-03-29T11:22:13.133Z,7.85
2023-03-29T11:25:14.107Z,8.60
2023-03-29T11:27:56.330Z,5.65
2023-03-29T11:30:35.407Z,5.45
2023-03-29T11:33:24.833Z,4.53
2023-03-29T11:36:17.807Z,6.47
2023-03-29T11:38:58.621Z,5.70
2023-03-29T11:41:31.585Z,8.05
2023-03-29T11:44:31.764Z,7.82
2023-03-29T11:47:08.343Z,4.47
2023-03-29T11:49:49.502Z,3.20
2023-03-29T11:52:29.161Z,4.90
2023-03-29T11:55:04.294Z,9.00
2023-03-29T11:57:40.079Z,10.60
2023-03-29T12:00:22.229Z,5.07
2023-03-29T12:02:56.938Z,9.77
2023-03-29T12:05:35.069Z,11.20
2023-03-29T12:08:06.408Z,6.53
2023-03-29T12:11:01.694Z,4.07
2023-03-29T12:13:33.739Z,7.53
2023-03-29T12:16:11.488Z,7.53
2023-03-29T12:18:43.131Z,9.02
2023-03-29T12:21:16.170Z,5.13
2023-03-29T12:23:46.558Z,4.95
2023-03-29T12:26:37.980Z,5.28
2023-03-29T12:29:37.423Z,6.22
2023-03-29T12:32:24.795Z,8.15
2023-03-29T12:35:14.537Z,4.63
2023-03-29T12:41:10.796Z,5.05
2023-03-29T12:44:03.799Z,2.60
2023-03-29T12:46:55.192Z,4.60
2023-03-29T12:49:31.829Z,6.40
2023-03-29T12:52:02.051Z,5.70
2023-03-29T12:54:32.830Z,6.70
2023-03-29T12:57:18.385Z,8.75
2023-03-29T12:59:48.357Z,3.80
2023-03-29T13:02:17.753Z,10.15
2023-03-29T13:04:57.319Z,4.13
2023-03-29T13:07:27.610Z,5.53
2023-03-29T13:10:05.173Z,8.93
2023-03-29T13:12:35.715Z,3.42
2023-03-29T13:15:07.257Z,3.47
2023-03-29T13:18:03.765Z,6.55
2023-03-29T13:21:09.428Z,10.05
2023-03-29T13:24:16.001Z,2.72
2023-03-29T13:26:59.267Z,4.63
2023-03-29T13:30:06.458Z,8.13
2023-03-29T13:33:09.833Z,7.75
2023-03-29T13:35:44.922Z,6.72
2023-03-29T13:38:20.626Z,6.28
2023-03-29T13:40:56.525Z,2.58
2023-03-29T13:43:51.932Z,6.47
2023-03-29T13:46:41.048Z,6.55
2023-03-29T13:49:24.014Z,3.85
2023-03-29T13:51:55.352Z,4.00
2023-03-29T13:54:32.343Z,3.03
2023-03-29T13:57:09.026Z,4.32
2023-03-29T14:04:52.482Z,4.97
2023-03-29T14:07:26.499Z,5.25
2023-03-29T14:09:56.596Z,5.50
2023-03-29T14:12:25.893Z,8.63
2023-03-29T14:15:00.812Z,6.35
2023-03-29T14:17:29.292Z,7.85
2023-03-29T14:20:00.760Z,6.75
2023-03-29T14:22:41.002Z,4.88
2023-03-29T14:25:16.220Z,6.20
2023-03-29T14:27:44.732Z,3.90
2023-03-29T14:30:20.370Z,5.97
2023-03-29T14:32:50.279Z,3.53
2023-03-29T14:35:18.427Z,4.80
2023-03-29T14:37:48.273Z,4.07
2023-03-29T14:40:19.342Z,11.32
2023-03-29T14:42:48.686Z,3.50
2023-03-29T14:45:18.761Z,5.15
2023-03-29T14:47:47.511Z,4.65
2023-03-29T14:50:33.930Z,5.90
2023-03-29T14:53:02.116Z,2.95
2023-03-29T14:55:31.065Z,4.05
2023-03-29T14:58:00.297Z,5.78
2023-03-29T15:00:41.834Z,4.07
2023-03-29T15:03:16.096Z,6.57
2023-03-29T15:06:13.894Z,6.05
2023-03-29T15:08:51.121Z,6.38
2023-03-29T15:11:28.125Z,3.95
2023-03-29T15:14:05.368Z,6.07
2023-03-29T15:16:34.226Z,9.00
2023-03-29T15:19:02.458Z,5.82
2023-03-29T15:21:35.148Z,3.30
2023-03-29T15:24:04.622Z,4.50
2023-03-29T15:26:37.938Z,4.35
2023-03-29T15:29:14.801Z,4.57
2023-03-29T15:34:24.118Z,6.18
2023-03-29T15:36:52.347Z,3.88
2023-03-29T15:39:20.853Z,5.72
2023-03-29T15:41:51.003Z,4.78
2023-03-29T15:44:26.439Z,4.95
2023-03-29T15:46:55.527Z,7.65
2023-03-29T15:49:23.487Z,8.32
2023-03-29T15:51:52.842Z,4.30
2023-03-29T15:54:24.754Z,4.97
2023-03-29T15:56:57.545Z,3.83
2023-03-29T15:59:25.612Z,6.75
2023-03-29T16:01:54.666Z,8.18
2023-03-29T16:04:22.717Z,9.35
2023-03-29T16:06:53.252Z,7.18
2023-03-29T16:09:22.134Z,5.25
2023-03-29T16:11:50.192Z,4.65
2023-03-29T16:14:24.535Z,2.63
2023-03-29T16:16:53.664Z,5.20
2023-03-29T16:19:21.948Z,6.75
2023-03-29T16:21:50.108Z,6.32
2023-03-29T16:24:20.006Z,6.35
2023-03-29T16:26:48.078Z,8.38
2023-03-29T16:29:17.432Z,5.43
2023-03-29T16:31:46.925Z,9.80
2023-03-29T16:34:16.365Z,6.35
2023-03-29T16:36:44.369Z,4.85
2023-03-29T16:39:13.508Z,6.28
2023-03-29T16:41:42.737Z,5.88
2023-03-29T16:44:17.078Z,5.68
2023-03-29T16:46:45.006Z,4.93
2023-03-29T16:49:18.140Z,9.13
2023-03-29T16:51:47.385Z,4.28
2023-03-29T16:54:17.170Z,8.05
2023-03-29T16:56:44.982Z,8.15
2023-03-29T16:59:12.760Z,5.55
2023-03-29T17:01:40.845Z,9.10
2023-03-29T17:04:09.407Z,5.78
2023-03-29T17:06:37.237Z,4.38
2023-03-29T17:09:06.192Z,7.47
2023-03-29T17:11:34.247Z,4.28
2023-03-29T17:14:01.744Z,7.70
2023-03-29T17:16:29.569Z,11.00
2023-03-29T17:19:03.034Z,9.18
2023-03-29T17:21:30.827Z,7.55
2023-03-29T17:23:58.189Z,5.18
2023-03-29T17:26:26.154Z,5.18
2023-03-29T17:28:53.786Z,10.38
2023-03-29T17:31:21.552Z,4.50
2023-03-29T17:33:52.144Z,5.43
2023-03-29T17:36:24.227Z,11.15
2023-03-29T17:38:51.998Z,8.10
2023-03-29T17:41:23.487Z,7.50
2023-03-29T17:43:52.347Z,7.60
2023-03-29T17:46:23.342Z,9.05
2023-03-29T17:48:51.598Z,8.85
2023-03-29T17:51:20.116Z,7.32
2023-03-29T17:53:47.609Z,10.25
2023-03-29T17:56:15.080Z,9.88
2023-03-29T17:58:42.724Z,6.40
2023-03-29T18:01:11.429Z,8.80
2023-03-29T18:03:39.074Z,8.60
2023-03-29T18:06:07.012Z,11.70
2023-03-29T18:08:35.150Z,8.65
2023-03-29T18:11:07.905Z,6.03
2023-03-29T18:13:35.675Z,6.85
2023-03-29T18:16:03.221Z,9.25
2023-03-29T18:18:31.214Z,6.82
2023-03-29T18:20:59.133Z,14.57
2023-03-29T18:23:27.839Z,16.15
2023-03-29T18:26:03.057Z,10.00
2023-03-29T18:28:31.369Z,8.25
2023-03-29T18:30:58.882Z,6.60
2023-03-29T18:33:26.595Z,10.57
2023-03-29T18:35:54.133Z,11.90
2023-03-29T18:38:22.829Z,10.63
2023-03-29T18:40:50.746Z,14.05
2023-03-29T18:43:18.833Z,8.68
2023-03-29T18:45:47.642Z,9.77
2023-03-29T18:48:15.712Z,7.50
2023-03-29T18:50:47.028Z,8.88
2023-03-29T18:53:14.796Z,10.02
2023-03-29T18:55:43.184Z,11.63
2023-03-29T18:58:12.418Z,11.27
2023-03-29T19:00:41.680Z,10.05
2023-03-29T19:03:09.848Z,13.07
2023-03-29T19:05:40.853Z,14.77
2023-03-29T19:08:09.197Z,10.63
2023-03-29T19:10:38.101Z,13.52
2023-03-29T19:13:06.315Z,7.78
2023-03-29T19:15:34.782Z,10.68
2023-03-29T19:18:02.563Z,11.73
2023-03-29T19:20:30.185Z,8.77
2023-03-29T19:22:57.936Z,8.05
2023-03-29T19:25:25.439Z,11.93
2023-03-29T19:27:52.900Z,10.02
2023-03-29T19:30:23.294Z,9.80
2023-03-29T19:32:51.631Z,10.82
2023-03-29T19:35:19.198Z,10.98
2023-03-29T19:37:46.798Z,12.63
2023-03-29T19:40:14.434Z,12.55
2023-03-29T19:42:41.948Z,10.63
2023-03-29T19:45:10.434Z,11.13
2023-03-29T19:47:38.037Z,6.78
2023-03-29T19:50:07.107Z,8.88
2023-03-29T19:52:35.350Z,11.80
2023-03-29T19:55:02.880Z,7.57
2023-03-29T19:57:30.977Z,6.95
2023-03-29T19:59:58.728Z,10.52
2023-03-29T20:02:26.708Z,15.75
2023-03-29T20:04:55.172Z,11.48
2023-03-29T20:07:22.843Z,10.52
2023-03-29T20:09:50.505Z,8.57
2023-03-29T20:12:18.117Z,12.23
2023-03-29T20:14:45.507Z,9.27
2023-03-29T20:17:13.203Z,8.93
2023-03-29T20:19:44.240Z,7.32
2023-03-29T20:22:12.481Z,9.60
2023-03-29T20:24:39.961Z,10.43
2023-03-29T20:27:07.529Z,7.05
2023-03-29T20:29:35.251Z,6.65
2023-03-29T20:32:03.357Z,8.85
2023-03-29T20:34:30.933Z,8.57
2023-03-29T20:37:01.052Z,18.50
2023-03-29T20:39:29.720Z,12.20
2023-03-29T20:41:57.836Z,10.00
2023-03-29T20:44:32.424Z,11.52
2023-03-29T20:52:57.436Z,12.07
2023-03-29T20:55:24.965Z,10.60
2023-03-29T20:57:58.398Z,9.25
2023-03-29T21:00:28.076Z,8.45
2023-03-29T21:02:56.709Z,11.75
2023-03-29T21:05:29.244Z,15.75
2023-03-29T21:07:57.088Z,8.57
2023-03-29T21:10:26.541Z,14.10
2023-03-29T21:12:54.914Z,7.78
2023-03-29T21:15:22.470Z,13.00
2023-03-29T21:17:50.140Z,7.38
2023-03-29T21:20:17.778Z,10.02
2023-03-29T21:22:45.409Z,6.97
2023-03-29T21:25:15.650Z,14.10
2023-03-29T21:27:43.451Z,7.90
2023-03-29T21:30:11.422Z,7.93
2023-03-29T21:32:38.948Z,11.27
2023-03-29T21:35:07.079Z,7.80
2023-03-29T21:37:34.629Z,12.15
2023-03-29T21:40:05.900Z,10.63
2023-03-29T21:42:34.506Z,15.45
2023-03-29T21:45:02.471Z,9.65
2023-03-29T21:47:30.595Z,8.32
2023-03-29T21:49:58.078Z,10.07
2023-03-29T21:52:25.607Z,10.90
2023-03-29T21:54:53.097Z,9.70
2023-03-29T21:57:20.859Z,9.80
2023-03-29T21:59:48.400Z,10.73
2023-03-29T22:02:15.870Z,9.10
2023-03-29T22:04:43.303Z,8.43
2023-03-29T22:07:10.838Z,8.95
2023-03-29T22:09:41.333Z,11.68
2023-03-29T22:12:10.086Z,5.13
2023-03-29T22:14:37.593Z,8.25
2023-03-29T22:17:06.476Z,6.85
2023-03-29T22:19:39.236Z,7.55
2023-03-29T22:22:13.790Z,9.45
2023-03-29T22:24:42.319Z,9.32
2023-03-29T22:27:11.818Z,8.43
2023-03-29T22:29:39.485Z,11.45
2023-03-29T22:32:07.029Z,6.75
2023-03-29T22:34:34.659Z,10.35
2023-03-29T22:37:02.132Z,11.05
2023-03-29T22:39:30.023Z,10.63
2023-03-29T22:41:57.617Z,10.88
2023-03-29T22:44:25.116Z,11.68
2023-03-29T22:46:52.646Z,14.73
2023-03-29T22:49:20.389Z,13.77
2023-03-29T22:51:47.759Z,6.43
2023-03-29T22:54:15.292Z,8.88
2023-03-29T22:56:42.849Z,9.43
2023-03-29T22:59:10.677Z,11.30
2023-03-29T23:01:38.172Z,9.13
2023-03-29T23:04:06.447Z,11.32
2023-03-29T23:06:34.057Z,8.80
2023-03-29T23:09:01.770Z,8.43
2023-03-29T23:11:29.183Z,8.73
2023-03-29T23:13:56.660Z,8.80
2023-03-29T23:16:24.679Z,7.28
2023-03-29T23:18:52.352Z,8.15
2023-03-29T23:21:19.714Z,9.80
2023-03-29T23:23:47.237Z,11.50
2023-03-29T23:26:14.933Z,8.10
2023-03-29T23:28:42.754Z,11.00
2023-03-29T23:31:12.638Z,9.32
2023-03-29T23:33:41.879Z,16.10
2023-03-29T23:36:12.257Z,8.90
2023-03-29T23:38:40.293Z,9.00
2023-03-29T23:41:10.912Z,11.50
2023-03-29T23:43:41.626Z,11.48
2023-03-29T23:46:11.876Z,16.63
2023-03-29T23:48:39.829Z,12.50
2023-03-29T23:51:08.292Z,8.25
2023-03-29T23:53:36.862Z,10.95
2023-03-29T23:56:05.985Z,12.52
2023-03-29T23:58:36.956Z,11.93
